Terminal Aerodrome Forecast
Issued by NWS Shreveport, LA

Home | Current Version | Previous Version | Text Only | Print | Product List | Glossary On
Versions: 1 2 3 4 5 6 7 8 9 10 11 12 13
190
FTUS44 KSHV 281452 AAA
TAFTYR
TAF AMD
KTYR 281452Z 2815/2912 06005KT P6SM BKN025
      TEMPO 2815/2817 OVC015
     FM281800 15012KT P6SM SCT035
     FM290700 15012KT P6SM OVC015=

USA.gov is the U.S. government's official web portal to all federal, state and local government web resources and services.